sensor_id;sensor_type;location;lat;lon;timestamp;pressure;altitude;pressure_sealevel;temperature;humidity
69184;BME280;56291;53.960;27.550;2022-07-22T00:00:00;99020.34;;;17.59;47.45
69184;BME280;56291;53.960;27.550;2022-07-22T00:02:27;99018.19;;;17.48;47.74
69184;BME280;56291;53.960;27.550;2022-07-22T00:04:53;99016.06;;;17.43;47.86
69184;BME280;56291;53.960;27.550;2022-07-22T00:07:22;99016.72;;;17.45;47.94
69184;BME280;56291;53.960;27.550;2022-07-22T00:09:48;99019.56;;;17.44;47.53
69184;BME280;56291;53.960;27.550;2022-07-22T00:12:15;99013.16;;;17.38;47.91
69184;BME280;56291;53.960;27.550;2022-07-22T00:14:41;99019.31;;;17.39;46.92
69184;BME280;56291;53.960;27.550;2022-07-22T00:17:08;99021.06;;;17.32;47.90
69184;BME280;56291;53.960;27.550;2022-07-22T00:19:39;99026.75;;;17.28;46.92
69184;BME280;56291;53.960;27.550;2022-07-22T00:22:11;99028.53;;;17.21;48.39
69184;BME280;56291;53.960;27.550;2022-07-22T00:24:37;99028.16;;;17.24;47.30
69184;BME280;56291;53.960;27.550;2022-07-22T00:27:04;99028.53;;;17.21;47.70
69184;BME280;56291;53.960;27.550;2022-07-22T00:29:30;99024.97;;;17.14;47.83
69184;BME280;56291;53.960;27.550;2022-07-22T00:31:56;99027.63;;;17.14;47.52
69184;BME280;56291;53.960;27.550;2022-07-22T00:34:22;99030.44;;;17.12;47.45
69184;BME280;56291;53.960;27.550;2022-07-22T00:36:49;99035.31;;;17.09;48.00
69184;BME280;56291;53.960;27.550;2022-07-22T00:39:15;99030.00;;;17.09;47.77
69184;BME280;56291;53.960;27.550;2022-07-22T00:41:42;99041.19;;;17.04;48.32
69184;BME280;56291;53.960;27.550;2022-07-22T00:44:08;99036.03;;;17.03;47.63
69184;BME280;56291;53.960;27.550;2022-07-22T00:46:36;99027.91;;;17.04;47.49
69184;BME280;56291;53.960;27.550;2022-07-22T00:49:04;99037.59;;;16.97;47.78
69184;BME280;56291;53.960;27.550;2022-07-22T00:51:31;99042.00;;;16.90;48.27
69184;BME280;56291;53.960;27.550;2022-07-22T00:53:59;99050.31;;;16.87;48.22
69184;BME280;56291;53.960;27.550;2022-07-22T00:56:26;99034.75;;;16.84;48.11
69184;BME280;56291;53.960;27.550;2022-07-22T00:58:58;99037.50;;;16.75;48.11
69184;BME280;56291;53.960;27.550;2022-07-22T01:01:26;99042.16;;;16.73;47.59
69184;BME280;56291;53.960;27.550;2022-07-22T01:03:52;99034.91;;;16.67;47.97
69184;BME280;56291;53.960;27.550;2022-07-22T01:06:18;99041.59;;;16.63;48.53
69184;BME280;56291;53.960;27.550;2022-07-22T01:08:45;99044.25;;;16.63;47.63
69184;BME280;56291;53.960;27.550;2022-07-22T01:11:13;99035.38;;;16.56;48.25
69184;BME280;56291;53.960;27.550;2022-07-22T01:13:41;99034.75;;;16.54;47.81
69184;BME280;56291;53.960;27.550;2022-07-22T01:16:08;99037.75;;;16.51;47.33
69184;BME280;56291;53.960;27.550;2022-07-22T01:18:37;99027.38;;;16.41;48.34
69184;BME280;56291;53.960;27.550;2022-07-22T01:21:04;99027.75;;;16.38;48.51
69184;BME280;56291;53.960;27.550;2022-07-22T01:23:43;99026.75;;;16.39;47.99
69184;BME280;56291;53.960;27.550;2022-07-22T01:26:10;99037.81;;;16.27;48.37
69184;BME280;56291;53.960;27.550;2022-07-22T01:28:36;99040.28;;;16.29;48.43
69184;BME280;56291;53.960;27.550;2022-07-22T01:31:03;99033.09;;;16.15;49.04
69184;BME280;56291;53.960;27.550;2022-07-22T01:33:29;99037.50;;;16.22;47.66
69184;BME280;56291;53.960;27.550;2022-07-22T01:35:56;99035.22;;;16.19;47.91
69184;BME280;56291;53.960;27.550;2022-07-22T01:38:22;99032.56;;;16.19;47.51
69184;BME280;56291;53.960;27.550;2022-07-22T01:40:51;99032.63;;;16.11;47.96
69184;BME280;56291;53.960;27.550;2022-07-22T01:43:17;99036.81;;;16.05;47.95
69184;BME280;56291;53.960;27.550;2022-07-22T01:45:51;99038.34;;;16.00;47.87
69184;BME280;56291;53.960;27.550;2022-07-22T01:48:18;99042.00;;;15.99;47.77
69184;BME280;56291;53.960;27.550;2022-07-22T01:50:44;99040.06;;;15.92;47.79
69184;BME280;56291;53.960;27.550;2022-07-22T01:53:13;99036.94;;;15.89;48.44
69184;BME280;56291;53.960;27.550;2022-07-22T01:55:40;99043.28;;;15.88;48.76
69184;BME280;56291;53.960;27.550;2022-07-22T01:58:06;99044.91;;;15.89;48.41
69184;BME280;56291;53.960;27.550;2022-07-22T02:00:34;99031.19;;;15.77;48.57
69184;BME280;56291;53.960;27.550;2022-07-22T02:03:00;99037.03;;;15.72;48.59
69184;BME280;56291;53.960;27.550;2022-07-22T02:05:27;99043.31;;;15.80;47.88
69184;BME280;56291;53.960;27.550;2022-07-22T02:08:08;99042.03;;;15.67;48.55
69184;BME280;56291;53.960;27.550;2022-07-22T02:10:36;99039.75;;;15.64;48.11
69184;BME280;56291;53.960;27.550;2022-07-22T02:13:03;99043.56;;;15.62;47.51
69184;BME280;56291;53.960;27.550;2022-07-22T02:15:30;99039.31;;;15.52;47.83
69184;BME280;56291;53.960;27.550;2022-07-22T02:17:56;99044.44;;;15.54;47.47
69184;BME280;56291;53.960;27.550;2022-07-22T02:20:25;99046.25;;;15.53;47.57
69184;BME280;56291;53.960;27.550;2022-07-22T02:22:52;99047.06;;;15.54;47.29
69184;BME280;56291;53.960;27.550;2022-07-22T02:25:18;99052.91;;;15.49;47.23
69184;BME280;56291;53.960;27.550;2022-07-22T02:27:45;99056.09;;;15.45;47.44
69184;BME280;56291;53.960;27.550;2022-07-22T02:30:12;99056.91;;;15.45;48.09
69184;BME280;56291;53.960;27.550;2022-07-22T02:32:38;99053.78;;;15.41;47.61
69184;BME280;56291;53.960;27.550;2022-07-22T02:35:08;99054.78;;;15.40;47.82
69184;BME280;56291;53.960;27.550;2022-07-22T02:37:37;99060.94;;;15.33;47.96
69184;BME280;56291;53.960;27.550;2022-07-22T02:40:07;99059.63;;;15.29;48.25
69184;BME280;56291;53.960;27.550;2022-07-22T04:52:07;99096.03;;;15.74;49.46
69184;BME280;56291;53.960;27.550;2022-07-22T04:54:33;99102.63;;;15.79;49.18
69184;BME280;56291;53.960;27.550;2022-07-22T04:57:00;99104.78;;;15.83;49.42
69184;BME280;56291;53.960;27.550;2022-07-22T04:59:27;99100.16;;;15.85;49.98
69184;BME280;56291;53.960;27.550;2022-07-22T05:01:53;99104.75;;;15.91;49.75
69184;BME280;56291;53.960;27.550;2022-07-22T05:04:19;99108.69;;;15.96;49.11
69184;BME280;56291;53.960;27.550;2022-07-22T05:06:45;99110.19;;;15.98;49.72
69184;BME280;56291;53.960;27.550;2022-07-22T05:09:12;99109.81;;;16.01;49.91
69184;BME280;56291;53.960;27.550;2022-07-22T05:11:38;99112.78;;;16.06;51.56
69184;BME280;56291;53.960;27.550;2022-07-22T05:14:04;99105.09;;;16.12;50.35
69184;BME280;56291;53.960;27.550;2022-07-22T05:16:30;99107.59;;;16.13;50.29
69184;BME280;56291;53.960;27.550;2022-07-22T05:18:57;99115.03;;;16.18;49.90
69184;BME280;56291;53.960;27.550;2022-07-22T05:21:23;99109.16;;;16.22;50.19
69184;BME280;56291;53.960;27.550;2022-07-22T05:23:49;99107.81;;;16.26;52.88
69184;BME280;56291;53.960;27.550;2022-07-22T05:26:16;99109.94;;;16.31;50.56
69184;BME280;56291;53.960;27.550;2022-07-22T05:28:42;99106.28;;;16.32;51.29
69184;BME280;56291;53.960;27.550;2022-07-22T05:31:08;99111.53;;;16.40;51.58
69184;BME280;56291;53.960;27.550;2022-07-22T05:33:35;99107.81;;;16.50;52.15
69184;BME280;56291;53.960;27.550;2022-07-22T05:36:01;99120.53;;;16.54;51.26
69184;BME280;56291;53.960;27.550;2022-07-22T05:38:28;99117.16;;;16.60;51.43
69184;BME280;56291;53.960;27.550;2022-07-22T05:40:54;99112.13;;;16.66;51.47
69184;BME280;56291;53.960;27.550;2022-07-22T05:43:21;99123.06;;;16.71;51.73
69184;BME280;56291;53.960;27.550;2022-07-22T05:45:47;99120.22;;;16.87;52.63
69184;BME280;56291;53.960;27.550;2022-07-22T05:48:13;99122.56;;;16.90;51.41
69184;BME280;56291;53.960;27.550;2022-07-22T05:50:40;99109.53;;;16.95;51.01
69184;BME280;56291;53.960;27.550;2022-07-22T05:53:06;99116.06;;;17.08;53.81
69184;BME280;56291;53.960;27.550;2022-07-22T05:55:32;99111.94;;;17.20;54.04
69184;BME280;56291;53.960;27.550;2022-07-22T05:57:58;99112.09;;;17.34;53.52
69184;BME280;56291;53.960;27.550;2022-07-22T06:00:25;99102.44;;;17.47;53.79
69184;BME280;56291;53.960;27.550;2022-07-22T06:02:51;99111.22;;;17.63;52.28
69184;BME280;56291;53.960;27.550;2022-07-22T06:05:17;99109.66;;;17.69;51.63
69184;BME280;56291;53.960;27.550;2022-07-22T06:07:44;99111.19;;;17.78;51.74
69184;BME280;56291;53.960;27.550;2022-07-22T06:10:10;99101.72;;;17.90;54.37
69184;BME280;56291;53.960;27.550;2022-07-22T06:12:37;99099.94;;;18.12;51.58
69184;BME280;56291;53.960;27.550;2022-07-22T06:15:04;99108.81;;;18.20;52.12
69184;BME280;56291;53.960;27.550;2022-07-22T06:17:31;99099.31;;;18.39;51.22
69184;BME280;56291;53.960;27.550;2022-07-22T06:19:58;99114.66;;;18.58;50.51
69184;BME280;56291;53.960;27.550;2022-07-22T06:22:24;99104.84;;;18.87;50.24
69184;BME280;56291;53.960;27.550;2022-07-22T06:24:50;99111.66;;;18.96;50.59
69184;BME280;56291;53.960;27.550;2022-07-22T06:27:16;99118.50;;;19.06;52.97
69184;BME280;56291;53.960;27.550;2022-07-22T06:29:43;99114.16;;;19.40;51.14
69184;BME280;56291;53.960;27.550;2022-07-22T06:32:10;99109.50;;;19.48;51.04
69184;BME280;56291;53.960;27.550;2022-07-22T06:34:36;99110.38;;;19.69;50.86
69184;BME280;56291;53.960;27.550;2022-07-22T06:37:02;99118.66;;;19.88;55.02
69184;BME280;56291;53.960;27.550;2022-07-22T06:39:29;99118.34;;;20.17;50.83
69184;BME280;56291;53.960;27.550;2022-07-22T06:41:55;99112.78;;;20.32;51.79
69184;BME280;56291;53.960;27.550;2022-07-22T06:44:21;99114.47;;;20.47;52.74
69184;BME280;56291;53.960;27.550;2022-07-22T06:46:48;99117.16;;;20.80;50.76
69184;BME280;56291;53.960;27.550;2022-07-22T06:49:14;99117.97;;;20.87;51.74
69184;BME280;56291;53.960;27.550;2022-07-22T06:51:41;99114.00;;;21.10;52.47
69184;BME280;56291;53.960;27.550;2022-07-22T06:54:07;99110.38;;;21.50;50.77
69184;BME280;56291;53.960;27.550;2022-07-22T06:56:33;99106.59;;;21.71;50.77
69184;BME280;56291;53.960;27.550;2022-07-22T06:58:59;99107.44;;;22.03;49.81
69184;BME280;56291;53.960;27.550;2022-07-22T07:01:27;99102.34;;;22.27;49.86
69184;BME280;56291;53.960;27.550;2022-07-22T07:03:53;99102.50;;;22.39;49.93
69184;BME280;56291;53.960;27.550;2022-07-22T07:06:19;99099.66;;;22.59;49.62
69184;BME280;56291;53.960;27.550;2022-07-22T07:08:46;99095.00;;;22.91;49.22
69184;BME280;56291;53.960;27.550;2022-07-22T07:11:12;99102.31;;;23.03;49.92
69184;BME280;56291;53.960;27.550;2022-07-22T07:13:38;99105.13;;;23.15;51.14
69184;BME280;56291;53.960;27.550;2022-07-22T07:16:05;99104.59;;;23.24;50.37
69184;BME280;56291;53.960;27.550;2022-07-22T07:18:31;99110.31;;;23.47;50.26
69184;BME280;56291;53.960;27.550;2022-07-22T07:20:58;99097.22;;;23.69;49.67
69184;BME280;56291;53.960;27.550;2022-07-22T07:23:24;99105.31;;;23.99;49.46
69184;BME280;56291;53.960;27.550;2022-07-22T07:25:51;99111.78;;;24.10;49.56
69184;BME280;56291;53.960;27.550;2022-07-22T07:28:17;99111.09;;;24.26;49.19
69184;BME280;56291;53.960;27.550;2022-07-22T07:30:43;99104.97;;;24.50;49.16
69184;BME280;56291;53.960;27.550;2022-07-22T07:33:10;99109.56;;;24.73;48.96
69184;BME280;56291;53.960;27.550;2022-07-22T07:35:36;99107.69;;;24.85;48.13
69184;BME280;56291;53.960;27.550;2022-07-22T07:38:02;99115.75;;;25.09;47.98
69184;BME280;56291;53.960;27.550;2022-07-22T07:40:29;99110.19;;;25.27;47.02
69184;BME280;56291;53.960;27.550;2022-07-22T07:42:55;99105.50;;;25.46;46.67
69184;BME280;56291;53.960;27.550;2022-07-22T07:45:22;99105.75;;;25.74;45.72
69184;BME280;56291;53.960;27.550;2022-07-22T07:47:48;99098.19;;;25.88;45.67
69184;BME280;56291;53.960;27.550;2022-07-22T07:50:15;99093.88;;;26.15;45.35
69184;BME280;56291;53.960;27.550;2022-07-22T07:52:43;99106.16;;;26.23;45.32
69184;BME280;56291;53.960;27.550;2022-07-22T07:55:10;99095.91;;;26.42;44.37
69184;BME280;56291;53.960;27.550;2022-07-22T07:57:39;99091.50;;;26.53;44.61
69184;BME280;56291;53.960;27.550;2022-07-22T08:00:09;99102.69;;;26.79;44.15
69184;BME280;56291;53.960;27.550;2022-07-22T08:02:35;99097.69;;;27.05;43.32
69184;BME280;56291;53.960;27.550;2022-07-22T08:05:02;99096.66;;;27.11;43.96
69184;BME280;56291;53.960;27.550;2022-07-22T08:07:29;99093.59;;;27.24;43.63
69184;BME280;56291;53.960;27.550;2022-07-22T08:09:56;99097.34;;;27.40;43.09
69184;BME280;56291;53.960;27.550;2022-07-22T08:12:22;99101.53;;;27.53;43.75
69184;BME280;56291;53.960;27.550;2022-07-22T08:14:48;99097.94;;;27.69;41.84
69184;BME280;56291;53.960;27.550;2022-07-22T08:17:15;99092.69;;;27.85;41.88
69184;BME280;56291;53.960;27.550;2022-07-22T08:19:41;99098.44;;;27.94;42.13
69184;BME280;56291;53.960;27.550;2022-07-22T08:22:10;99093.41;;;28.02;42.79
69184;BME280;56291;53.960;27.550;2022-07-22T08:24:36;99104.63;;;28.16;42.45
69184;BME280;56291;53.960;27.550;2022-07-22T08:27:03;99096.03;;;28.25;42.62
69184;BME280;56291;53.960;27.550;2022-07-22T08:29:29;99094.75;;;28.32;41.78
69184;BME280;56291;53.960;27.550;2022-07-22T08:31:55;99106.81;;;28.52;41.70
69184;BME280;56291;53.960;27.550;2022-07-22T08:34:22;99098.00;;;28.67;41.65
69184;BME280;56291;53.960;27.550;2022-07-22T08:36:48;99099.44;;;28.80;41.28
69184;BME280;56291;53.960;27.550;2022-07-22T08:39:15;99102.75;;;28.92;41.41
69184;BME280;56291;53.960;27.550;2022-07-22T08:41:41;99100.97;;;29.13;40.95
69184;BME280;56291;53.960;27.550;2022-07-22T08:44:09;99100.56;;;29.32;40.54
69184;BME280;56291;53.960;27.550;2022-07-22T08:46:36;99108.75;;;29.52;40.93
69184;BME280;56291;53.960;27.550;2022-07-22T08:49:03;99104.75;;;29.76;39.38
69184;BME280;56291;53.960;27.550;2022-07-22T08:51:29;99095.31;;;29.94;40.74
69184;BME280;56291;53.960;27.550;2022-07-22T08:53:56;99090.47;;;30.16;40.21
69184;BME280;56291;53.960;27.550;2022-07-22T08:56:22;99097.25;;;30.45;38.82
69184;BME280;56291;53.960;27.550;2022-07-22T08:58:49;99094.50;;;30.70;38.72
69184;BME280;56291;53.960;27.550;2022-07-22T09:01:16;99098.25;;;30.95;40.34
69184;BME280;56291;53.960;27.550;2022-07-22T09:06:16;99099.31;;;31.15;37.80
69184;BME280;56291;53.960;27.550;2022-07-22T09:08:56;99095.19;;;31.27;38.34
69184;BME280;56291;53.960;27.550;2022-07-22T09:11:24;99107.31;;;31.51;37.37
69184;BME280;56291;53.960;27.550;2022-07-22T09:13:51;99094.75;;;31.65;37.79
69184;BME280;56291;53.960;27.550;2022-07-22T09:16:42;99097.13;;;31.77;38.35
69184;BME280;56291;53.960;27.550;2022-07-22T09:19:09;99099.84;;;31.77;37.80
69184;BME280;56291;53.960;27.550;2022-07-22T09:21:38;99093.09;;;31.69;38.59
69184;BME280;56291;53.960;27.550;2022-07-22T09:24:05;99095.47;;;31.81;36.42
69184;BME280;56291;53.960;27.550;2022-07-22T09:26:37;99106.25;;;31.97;37.15
69184;BME280;56291;53.960;27.550;2022-07-22T09:29:05;99093.91;;;32.15;37.87
69184;BME280;56291;53.960;27.550;2022-07-22T09:31:36;99101.13;;;32.30;36.98
69184;BME280;56291;53.960;27.550;2022-07-22T09:34:04;99093.41;;;32.42;37.02
69184;BME280;56291;53.960;27.550;2022-07-22T09:36:31;99088.38;;;32.54;37.23
69184;BME280;56291;53.960;27.550;2022-07-22T09:39:00;99090.97;;;32.70;36.61
69184;BME280;56291;53.960;27.550;2022-07-22T09:41:26;99096.78;;;32.87;35.73
69184;BME280;56291;53.960;27.550;2022-07-22T09:43:53;99094.22;;;32.96;36.38
69184;BME280;56291;53.960;27.550;2022-07-22T09:46:35;99091.28;;;32.92;35.66
69184;BME280;56291;53.960;27.550;2022-07-22T09:49:02;99095.09;;;33.16;35.90
69184;BME280;56291;53.960;27.550;2022-07-22T09:51:30;99095.56;;;33.23;37.38
69184;BME280;56291;53.960;27.550;2022-07-22T09:53:56;99096.66;;;33.46;34.44
69184;BME280;56291;53.960;27.550;2022-07-22T09:56:24;99084.56;;;33.52;34.35
69184;BME280;56291;53.960;27.550;2022-07-22T09:58:54;99088.56;;;33.60;34.60
69184;BME280;56291;53.960;27.550;2022-07-22T10:01:21;99085.63;;;33.75;35.26
69184;BME280;56291;53.960;27.550;2022-07-22T10:03:48;99089.91;;;34.01;35.28
69184;BME280;56291;53.960;27.550;2022-07-22T10:06:16;99087.16;;;34.01;34.33
69184;BME280;56291;53.960;27.550;2022-07-22T10:08:58;99084.38;;;34.20;34.18
69184;BME280;56291;53.960;27.550;2022-07-22T10:11:25;99093.66;;;34.05;29.79
69184;BME280;56291;53.960;27.550;2022-07-22T10:13:51;99090.28;;;34.27;35.23
69184;BME280;56291;53.960;27.550;2022-07-22T10:16:18;99087.31;;;34.56;33.92
69184;BME280;56291;53.960;27.550;2022-07-22T10:18:50;99086.16;;;34.76;34.39
69184;BME280;56291;53.960;27.550;2022-07-22T10:21:18;99091.25;;;34.97;34.64
69184;BME280;56291;53.960;27.550;2022-07-22T10:24:07;99080.91;;;35.22;33.20
69184;BME280;56291;53.960;27.550;2022-07-22T10:26:54;99080.19;;;35.44;32.43
69184;BME280;56291;53.960;27.550;2022-07-22T10:29:39;99079.19;;;35.76;32.68
69184;BME280;56291;53.960;27.550;2022-07-22T10:37:36;99072.69;;;36.31;30.75
69184;BME280;56291;53.960;27.550;2022-07-22T10:40:17;99081.63;;;36.46;31.58
69184;BME280;56291;53.960;27.550;2022-07-22T10:45:29;99077.97;;;36.91;31.21
69184;BME280;56291;53.960;27.550;2022-07-22T10:47:58;99077.72;;;37.10;29.93
69184;BME280;56291;53.960;27.550;2022-07-22T10:56:20;99069.41;;;37.41;30.22
69184;BME280;56291;53.960;27.550;2022-07-22T10:58:50;99073.94;;;37.54;28.40
69184;BME280;56291;53.960;27.550;2022-07-22T11:01:19;99078.13;;;37.61;27.72
69184;BME280;56291;53.960;27.550;2022-07-22T11:03:47;99070.06;;;37.64;24.75
69184;BME280;56291;53.960;27.550;2022-07-22T11:06:15;99072.34;;;37.80;28.58
69184;BME280;56291;53.960;27.550;2022-07-22T11:08:43;99081.19;;;38.03;28.06
69184;BME280;56291;53.960;27.550;2022-07-22T11:11:10;99076.34;;;38.26;29.78
69184;BME280;56291;53.960;27.550;2022-07-22T11:13:42;99067.69;;;38.54;28.34
69184;BME280;56291;53.960;27.550;2022-07-22T11:19:01;99057.03;;;38.91;27.98
69184;BME280;56291;53.960;27.550;2022-07-22T11:21:32;99059.78;;;38.91;26.70
69184;BME280;56291;53.960;27.550;2022-07-22T11:24:01;99055.06;;;39.00;26.48
69184;BME280;56291;53.960;27.550;2022-07-22T11:26:42;99055.22;;;39.25;26.34
69184;BME280;56291;53.960;27.550;2022-07-22T11:29:37;99046.97;;;39.25;26.17
69184;BME280;56291;53.960;27.550;2022-07-22T11:32:10;99045.47;;;39.57;26.88
69184;BME280;56291;53.960;27.550;2022-07-22T11:34:43;99050.31;;;39.61;27.49
69184;BME280;56291;53.960;27.550;2022-07-22T11:37:14;99044.09;;;39.85;27.06
69184;BME280;56291;53.960;27.550;2022-07-22T11:39:41;99051.59;;;39.97;26.13
69184;BME280;56291;53.960;27.550;2022-07-22T11:42:07;99057.41;;;40.04;25.80
69184;BME280;56291;53.960;27.550;2022-07-22T11:44:36;99049.66;;;40.43;27.42
69184;BME280;56291;53.960;27.550;2022-07-22T11:47:04;99052.81;;;40.66;28.76
69184;BME280;56291;53.960;27.550;2022-07-22T11:49:32;99041.31;;;40.64;26.45
69184;BME280;56291;53.960;27.550;2022-07-22T11:52:02;99048.22;;;40.70;25.59
69184;BME280;56291;53.960;27.550;2022-07-22T11:54:29;99043.84;;;40.82;25.75
69184;BME280;56291;53.960;27.550;2022-07-22T11:56:55;99051.66;;;40.92;25.08
69184;BME280;56291;53.960;27.550;2022-07-22T11:59:22;99049.38;;;41.06;25.61
69184;BME280;56291;53.960;27.550;2022-07-22T12:01:49;99047.94;;;41.25;26.13
69184;BME280;56291;53.960;27.550;2022-07-22T12:04:24;99043.00;;;41.18;25.93
69184;BME280;56291;53.960;27.550;2022-07-22T12:06:51;99042.22;;;41.05;24.11
69184;BME280;56291;53.960;27.550;2022-07-22T12:09:21;99040.72;;;41.20;25.91
69184;BME280;56291;53.960;27.550;2022-07-22T12:11:50;99034.06;;;41.09;21.56
69184;BME280;56291;53.960;27.550;2022-07-22T12:14:18;99036.84;;;41.09;25.70
69184;BME280;56291;53.960;27.550;2022-07-22T12:16:55;99031.44;;;41.00;23.91
69184;BME280;56291;53.960;27.550;2022-07-22T12:19:22;99035.31;;;41.12;25.41
69184;BME280;56291;53.960;27.550;2022-07-22T12:21:53;99035.69;;;40.98;24.75
69184;BME280;56291;53.960;27.550;2022-07-22T12:27:06;99037.41;;;41.15;25.04
69184;BME280;56291;53.960;27.550;2022-07-22T12:32:10;99031.50;;;41.29;23.96
69184;BME280;56291;53.960;27.550;2022-07-22T12:37:27;99028.44;;;41.05;22.48
69184;BME280;56291;53.960;27.550;2022-07-22T12:40:01;99030.03;;;41.19;25.09
69184;BME280;56291;53.960;27.550;2022-07-22T12:42:59;99029.41;;;41.25;24.92
69184;BME280;56291;53.960;27.550;2022-07-22T12:45:20;99028.56;;;40.84;22.56
69184;BME280;56291;53.960;27.550;2022-07-22T12:55:39;99021.06;;;40.85;24.67
69184;BME280;56291;53.960;27.550;2022-07-22T12:58:06;99027.84;;;40.87;24.78
69184;BME280;56291;53.960;27.550;2022-07-22T13:00:36;99020.63;;;40.83;22.54
69184;BME280;56291;53.960;27.550;2022-07-22T13:03:03;99020.72;;;40.86;24.71
69184;BME280;56291;53.960;27.550;2022-07-22T13:05:30;99026.59;;;40.97;24.57
69184;BME280;56291;53.960;27.550;2022-07-22T13:07:56;99016.38;;;40.98;24.34
69184;BME280;56291;53.960;27.550;2022-07-22T13:10:24;99014.19;;;41.03;24.70
69184;BME280;56291;53.960;27.550;2022-07-22T13:12:51;99022.00;;;41.14;24.85
69184;BME280;56291;53.960;27.550;2022-07-22T13:15:18;99011.38;;;41.28;24.42
69184;BME280;56291;53.960;27.550;2022-07-22T13:17:45;99016.09;;;41.27;24.89
69184;BME280;56291;53.960;27.550;2022-07-22T13:20:13;99007.28;;;41.50;24.61
69184;BME280;56291;53.960;27.550;2022-07-22T13:22:42;99013.97;;;41.49;24.78
69184;BME280;56291;53.960;27.550;2022-07-22T13:25:08;99001.78;;;41.50;21.86
69184;BME280;56291;53.960;27.550;2022-07-22T13:27:35;99003.81;;;41.53;23.13
69184;BME280;56291;53.960;27.550;2022-07-22T13:30:01;99008.63;;;41.56;25.04
69184;BME280;56291;53.960;27.550;2022-07-22T13:32:28;99004.53;;;41.50;24.54
69184;BME280;56291;53.960;27.550;2022-07-22T13:34:54;99010.56;;;41.68;24.74
69184;BME280;56291;53.960;27.550;2022-07-22T13:37:21;99005.00;;;41.81;24.44
69184;BME280;56291;53.960;27.550;2022-07-22T13:39:47;99008.50;;;41.93;24.62
69184;BME280;56291;53.960;27.550;2022-07-22T13:42:15;99012.56;;;41.84;24.95
69184;BME280;56291;53.960;27.550;2022-07-22T13:44:48;99001.31;;;41.76;24.47
69184;BME280;56291;53.960;27.550;2022-07-22T13:47:17;99005.34;;;41.79;24.78
69184;BME280;56291;53.960;27.550;2022-07-22T13:49:44;99009.91;;;41.87;24.20
69184;BME280;56291;53.960;27.550;2022-07-22T13:52:12;99006.28;;;41.99;24.13
69184;BME280;56291;53.960;27.550;2022-07-22T13:54:40;98999.19;;;41.86;24.29
69184;BME280;56291;53.960;27.550;2022-07-22T13:57:06;98995.22;;;41.99;24.50
69184;BME280;56291;53.960;27.550;2022-07-22T13:59:33;99002.06;;;42.05;24.22
69184;BME280;56291;53.960;27.550;2022-07-22T14:02:00;99008.13;;;41.95;24.37
69184;BME280;56291;53.960;27.550;2022-07-22T14:04:27;99008.31;;;42.02;23.53
69184;BME280;56291;53.960;27.550;2022-07-22T14:06:54;99004.31;;;42.00;24.82
69184;BME280;56291;53.960;27.550;2022-07-22T14:09:20;99002.78;;;42.02;24.40
69184;BME280;56291;53.960;27.550;2022-07-22T14:11:46;99004.00;;;41.89;24.65
69184;BME280;56291;53.960;27.550;2022-07-22T14:14:13;99000.75;;;41.99;23.62
69184;BME280;56291;53.960;27.550;2022-07-22T14:16:40;98996.38;;;41.98;24.21
69184;BME280;56291;53.960;27.550;2022-07-22T14:19:15;99005.38;;;41.95;24.08
69184;BME280;56291;53.960;27.550;2022-07-22T14:21:43;99006.34;;;41.87;23.65
69184;BME280;56291;53.960;27.550;2022-07-22T14:24:11;99000.50;;;41.76;24.08
69184;BME280;56291;53.960;27.550;2022-07-22T14:26:38;99011.69;;;41.67;23.22
69184;BME280;56291;53.960;27.550;2022-07-22T14:29:05;99004.53;;;41.50;23.48
69184;BME280;56291;53.960;27.550;2022-07-22T14:31:32;99006.53;;;41.37;23.91
69184;BME280;56291;53.960;27.550;2022-07-22T14:33:59;99001.59;;;41.31;23.55
69184;BME280;56291;53.960;27.550;2022-07-22T14:36:26;99004.97;;;41.12;23.82
69184;BME280;56291;53.960;27.550;2022-07-22T14:38:52;99001.44;;;40.99;23.96
69184;BME280;56291;53.960;27.550;2022-07-22T14:41:22;99010.59;;;40.90;24.73
69184;BME280;56291;53.960;27.550;2022-07-22T14:43:49;99001.31;;;40.83;24.50
69184;BME280;56291;53.960;27.550;2022-07-22T14:46:15;98997.66;;;40.66;25.14
69184;BME280;56291;53.960;27.550;2022-07-22T14:48:41;99012.34;;;40.58;24.89
69184;BME280;56291;53.960;27.550;2022-07-22T14:51:08;99006.63;;;40.51;24.61
69184;BME280;56291;53.960;27.550;2022-07-22T14:53:35;99010.03;;;40.35;24.25
69184;BME280;56291;53.960;27.550;2022-07-22T14:56:01;99006.66;;;40.17;24.14
69184;BME280;56291;53.960;27.550;2022-07-22T14:58:27;99002.75;;;40.06;24.83
69184;BME280;56291;53.960;27.550;2022-07-22T15:00:53;99004.66;;;39.93;24.77
69184;BME280;56291;53.960;27.550;2022-07-22T15:03:20;98993.13;;;39.79;24.76
69184;BME280;56291;53.960;27.550;2022-07-22T15:05:46;99001.94;;;39.72;24.85
69184;BME280;56291;53.960;27.550;2022-07-22T15:08:12;99005.03;;;39.49;25.09
69184;BME280;56291;53.960;27.550;2022-07-22T15:10:39;98995.59;;;39.38;25.60
69184;BME280;56291;53.960;27.550;2022-07-22T15:13:05;98996.56;;;39.33;25.94
69184;BME280;56291;53.960;27.550;2022-07-22T15:15:31;98997.75;;;39.32;26.08
69184;BME280;56291;53.960;27.550;2022-07-22T15:17:58;98994.56;;;39.21;26.43
69184;BME280;56291;53.960;27.550;2022-07-22T15:20:25;98994.91;;;39.20;26.33
69184;BME280;56291;53.960;27.550;2022-07-22T15:22:51;98992.34;;;39.15;26.77
69184;BME280;56291;53.960;27.550;2022-07-22T15:25:19;98992.34;;;39.15;26.69
69184;BME280;56291;53.960;27.550;2022-07-22T15:27:48;98992.28;;;39.23;26.35
69184;BME280;56291;53.960;27.550;2022-07-22T15:30:14;98995.19;;;39.27;26.42
69184;BME280;56291;53.960;27.550;2022-07-22T15:32:41;98993.09;;;39.24;26.39
69184;BME280;56291;53.960;27.550;2022-07-22T15:35:07;98984.50;;;39.26;26.51
69184;BME280;56291;53.960;27.550;2022-07-22T15:37:34;98985.19;;;39.22;26.57